createdAt,value
2022-11-19T00:00:37.093Z,16.75
2022-11-19T00:03:06.341Z,15.25
2022-11-19T00:05:40.665Z,19.75
2022-11-19T00:08:10.875Z,18.50
2022-11-19T00:10:40.714Z,18.00
2022-11-19T00:13:10.710Z,19.75
2022-11-19T00:15:40.004Z,25.25
2022-11-19T00:18:09.552Z,20.00
2022-11-19T00:20:38.810Z,17.75
2022-11-19T00:23:07.995Z,19.25
2022-11-19T00:25:37.235Z,21.00
2022-11-19T00:28:06.658Z,18.75
2022-11-19T00:30:51.147Z,17.25
2022-11-19T00:33:20.453Z,16.25
2022-11-19T00:35:50.885Z,20.00
2022-11-19T00:38:20.192Z,19.00
2022-11-19T00:40:49.474Z,21.00
2022-11-19T00:43:36.903Z,21.75
2022-11-19T00:46:06.274Z,21.25
2022-11-19T00:48:35.636Z,23.00
2022-11-19T00:51:05.120Z,23.00
2022-11-19T00:53:34.425Z,22.25
2022-11-19T00:56:05.406Z,22.75
2022-11-19T00:58:36.065Z,21.75
2022-11-19T01:01:06.182Z,21.25
2022-11-19T01:03:36.512Z,23.00
2022-11-19T01:06:06.510Z,27.00
2022-11-19T01:08:35.856Z,27.00
2022-11-19T01:11:07.991Z,22.75
2022-11-19T01:13:37.821Z,24.25
2022-11-19T01:16:10.207Z,23.75
2022-11-19T01:18:41.509Z,21.75
2022-11-19T01:21:12.369Z,23.00
2022-11-19T01:23:42.871Z,22.50
2022-11-19T01:26:12.390Z,22.75
2022-11-19T01:28:42.048Z,22.50
2022-11-19T01:31:16.013Z,21.50
2022-11-19T01:33:46.893Z,21.50
2022-11-19T01:36:20.746Z,19.75
2022-11-19T01:38:53.089Z,22.50
2022-11-19T01:41:24.335Z,29.25
2022-11-19T01:43:56.158Z,25.00
2022-11-19T01:46:27.007Z,28.50
2022-11-19T01:49:03.563Z,25.25
2022-11-19T01:51:33.651Z,26.00
2022-11-19T01:54:11.356Z,27.50
2022-11-19T01:56:41.288Z,25.50
2022-11-19T01:59:13.391Z,27.25
2022-11-19T02:01:43.800Z,23.25
2022-11-19T02:04:13.604Z,24.00
2022-11-19T02:06:43.542Z,22.25
2022-11-19T02:09:13.753Z,26.75
2022-11-19T02:12:01.382Z,24.50
2022-11-19T02:14:42.528Z,23.00
2022-11-19T02:17:19.749Z,31.25
2022-11-19T02:19:55.174Z,29.00
2022-11-19T02:22:36.744Z,30.25
2022-11-19T02:25:35.214Z,31.75
2022-11-19T02:28:24.129Z,30.50
2022-11-19T02:30:54.988Z,32.25
2022-11-19T02:33:30.486Z,30.50
2022-11-19T02:36:11.699Z,31.00
2022-11-19T02:38:43.624Z,31.50
2022-11-19T02:41:36.622Z,31.00
2022-11-19T02:44:36.415Z,29.50
2022-11-19T02:47:08.234Z,30.50
2022-11-19T02:49:38.953Z,30.75
2022-11-19T02:52:09.761Z,30.75
2022-11-19T02:54:39.152Z,29.50
2022-11-19T02:57:08.562Z,30.50
2022-11-19T03:00:08.733Z,30.00
2022-11-19T03:03:00.052Z,31.00
2022-11-19T03:05:31.568Z,33.75
2022-11-19T03:08:01.512Z,31.25
2022-11-19T03:10:35.146Z,30.50
2022-11-19T03:13:35.166Z,31.75
2022-11-19T03:16:23.907Z,32.25
2022-11-19T03:18:57.149Z,32.50
2022-11-19T03:21:32.212Z,32.50
2022-11-19T03:24:13.960Z,32.00
2022-11-19T03:26:53.416Z,32.25
2022-11-19T03:29:24.582Z,30.50
2022-11-19T03:31:58.142Z,30.00
2022-11-19T03:34:30.867Z,32.00
2022-11-19T03:37:02.826Z,32.50
2022-11-19T03:39:33.801Z,32.00
2022-11-19T03:42:07.080Z,30.25
2022-11-19T03:44:49.948Z,30.25
2022-11-19T03:47:25.233Z,30.75
2022-11-19T03:50:00.096Z,31.00
2022-11-19T03:52:30.307Z,31.00
2022-11-19T03:54:59.777Z,30.50
2022-11-19T03:57:29.172Z,32.00
2022-11-19T03:59:59.285Z,30.75
2022-11-19T04:02:29.501Z,31.00
2022-11-19T04:04:59.292Z,29.50
2022-11-19T04:07:31.195Z,30.75
2022-11-19T04:10:00.605Z,31.25
2022-11-19T04:12:30.007Z,31.25
2022-11-19T04:15:00.338Z,32.75
2022-11-19T04:17:29.776Z,31.50
2022-11-19T04:19:59.116Z,31.75
2022-11-19T04:22:38.181Z,30.75
2022-11-19T04:25:09.115Z,31.75
2022-11-19T04:27:38.884Z,31.75
2022-11-19T04:30:09.404Z,31.50
2022-11-19T04:32:38.781Z,32.50
2022-11-19T04:35:09.610Z,31.00
2022-11-19T04:37:39.631Z,30.50
2022-11-19T04:40:09.619Z,32.00
2022-11-19T04:42:39.113Z,31.25
2022-11-19T04:45:09.533Z,31.00
2022-11-19T04:47:39.290Z,33.25
2022-11-19T04:50:09.306Z,33.50
2022-11-19T04:52:41.142Z,32.75
2022-11-19T04:55:12.275Z,30.50
2022-11-19T04:57:42.424Z,33.25
2022-11-19T05:00:13.299Z,33.50
2022-11-19T05:02:43.471Z,33.00
2022-11-19T05:05:13.279Z,32.50
2022-11-19T05:07:42.901Z,33.25
2022-11-19T05:10:12.560Z,31.50
2022-11-19T05:12:42.316Z,33.25
2022-11-19T05:15:12.260Z,32.00
2022-11-19T05:17:41.927Z,31.50
2022-11-19T05:20:11.813Z,33.25
2022-11-19T05:22:41.538Z,31.00
2022-11-19T05:25:11.264Z,33.25
2022-11-19T05:27:40.912Z,32.25
2022-11-19T05:30:11.141Z,31.25
2022-11-19T05:32:42.093Z,32.50
2022-11-19T05:35:12.040Z,33.50
2022-11-19T05:37:42.052Z,32.25
2022-11-19T05:40:11.893Z,31.50
2022-11-19T05:42:42.512Z,32.25
2022-11-19T05:45:13.424Z,33.00
2022-11-19T05:47:47.373Z,31.00
2022-11-19T05:50:18.309Z,33.00
2022-11-19T05:52:52.400Z,32.00
2022-11-19T05:55:22.235Z,32.25
2022-11-19T05:57:52.009Z,31.50
2022-11-19T06:00:21.836Z,32.75
2022-11-19T06:02:51.518Z,32.50
2022-11-19T06:05:22.106Z,31.50
2022-11-19T06:07:51.753Z,33.50
2022-11-19T06:10:21.338Z,32.25
2022-11-19T06:12:51.133Z,31.25
2022-11-19T06:15:22.753Z,32.25
2022-11-19T06:17:52.569Z,30.75
2022-11-19T06:20:22.230Z,33.50
2022-11-19T06:22:53.052Z,30.75
2022-11-19T06:25:22.747Z,32.75
2022-11-19T06:27:52.459Z,32.50
2022-11-19T06:30:23.151Z,32.25
2022-11-19T06:32:52.784Z,32.50
2022-11-19T06:35:22.468Z,31.50
2022-11-19T06:37:52.251Z,32.25
2022-11-19T06:40:22.065Z,31.50
2022-11-19T06:42:52.061Z,32.25
2022-11-19T06:45:21.734Z,31.25
2022-11-19T06:47:51.409Z,31.50
2022-11-19T06:50:21.026Z,36.25
2022-11-19T06:52:50.707Z,34.00
2022-11-19T06:55:20.570Z,32.50
2022-11-19T06:57:50.312Z,33.00
2022-11-19T07:00:20.111Z,31.50
2022-11-19T07:02:49.851Z,30.75
2022-11-19T07:05:19.509Z,33.75
2022-11-19T07:07:49.235Z,33.50
2022-11-19T07:10:18.844Z,33.00
2022-11-19T07:12:48.623Z,33.50
2022-11-19T07:15:18.230Z,33.75
2022-11-19T07:17:47.929Z,31.50
2022-11-19T07:20:18.104Z,34.00
2022-11-19T07:22:48.841Z,32.75
2022-11-19T07:25:18.476Z,34.00
2022-11-19T07:27:48.723Z,33.00
2022-11-19T07:30:18.647Z,35.25
2022-11-19T07:32:48.231Z,33.75
2022-11-19T07:35:17.930Z,34.75
2022-11-19T07:37:47.532Z,36.50
2022-11-19T07:40:18.198Z,34.00
2022-11-19T07:42:54.687Z,34.00
2022-11-19T07:45:24.675Z,34.00
2022-11-19T07:47:55.341Z,34.75
2022-11-19T07:50:25.093Z,35.25
2022-11-19T07:52:55.164Z,36.00
2022-11-19T07:55:24.932Z,34.75
2022-11-19T07:57:57.493Z,35.25
2022-11-19T08:00:27.451Z,36.50
2022-11-19T08:02:57.148Z,36.75
2022-11-19T08:05:26.820Z,38.50
2022-11-19T08:07:56.717Z,35.25
2022-11-19T08:10:31.560Z,36.75
2022-11-19T08:13:04.999Z,36.50
2022-11-19T08:15:35.801Z,34.50
2022-11-19T08:18:14.563Z,34.25
2022-11-19T08:20:50.094Z,36.25
2022-11-19T08:23:19.764Z,35.00
2022-11-19T08:25:49.715Z,38.50
2022-11-19T08:28:19.358Z,35.50
2022-11-19T08:30:49.055Z,33.25
2022-11-19T08:33:18.705Z,31.00
2022-11-19T08:35:48.527Z,32.50
2022-11-19T08:38:18.186Z,28.25
2022-11-19T08:40:52.431Z,28.00
2022-11-19T08:43:22.288Z,28.25
2022-11-19T08:45:55.657Z,27.75
2022-11-19T08:48:25.118Z,27.25
2022-11-19T08:50:55.954Z,27.75
2022-11-19T08:53:25.787Z,25.50
2022-11-19T08:55:55.330Z,25.00
2022-11-19T08:58:25.034Z,26.00
2022-11-19T09:00:55.538Z,25.25
2022-11-19T09:03:26.609Z,25.00
2022-11-19T09:06:02.890Z,24.75
2022-11-19T09:08:32.609Z,23.25
2022-11-19T09:11:02.065Z,24.00
2022-11-19T09:13:31.430Z,25.50
2022-11-19T09:16:00.858Z,21.75
2022-11-19T09:18:30.391Z,23.25
2022-11-19T09:21:00.074Z,22.25
2022-11-19T09:23:29.566Z,22.00
2022-11-19T09:26:06.828Z,22.50
2022-11-19T09:28:37.319Z,23.75
2022-11-19T09:31:11.135Z,24.75
2022-11-19T09:33:43.490Z,23.00
2022-11-19T09:36:14.501Z,28.75
2022-11-19T09:38:44.556Z,26.00
2022-11-19T09:41:21.219Z,24.75
2022-11-19T09:44:08.986Z,26.75
2022-11-19T09:46:43.693Z,27.25
2022-11-19T09:49:17.492Z,28.50
2022-11-19T09:51:53.716Z,26.75
2022-11-19T09:54:24.423Z,28.00
2022-11-19T09:56:58.053Z,26.25
2022-11-19T09:59:40.185Z,26.75
2022-11-19T10:02:20.109Z,28.75
2022-11-19T10:04:51.705Z,27.00
2022-11-19T10:07:30.564Z,24.00
2022-11-19T10:10:12.244Z,27.25
2022-11-19T10:13:14.208Z,27.25
2022-11-19T10:15:43.747Z,28.00
2022-11-19T10:18:28.570Z,27.00
2022-11-19T10:21:06.300Z,25.25
2022-11-19T10:24:02.976Z,26.50
2022-11-19T10:26:37.872Z,22.50
2022-11-19T10:29:16.486Z,21.00
2022-11-19T10:31:50.432Z,18.75
2022-11-19T10:34:31.272Z,21.00
2022-11-19T10:37:15.453Z,21.50
2022-11-19T10:39:50.945Z,21.75
2022-11-19T10:42:20.644Z,22.50
2022-11-19T10:44:59.769Z,24.75
2022-11-19T10:47:37.274Z,23.75
2022-11-19T10:50:11.101Z,22.25
2022-11-19T10:53:01.415Z,22.75
2022-11-19T10:55:34.096Z,23.75
2022-11-19T10:58:18.763Z,21.50
2022-11-19T11:00:48.981Z,21.00
2022-11-19T11:03:29.922Z,20.00
2022-11-19T11:06:06.669Z,19.00
2022-11-19T11:08:49.050Z,19.00
2022-11-19T11:11:25.071Z,17.50
2022-11-19T11:14:13.360Z,18.50
2022-11-19T11:16:47.992Z,19.00
2022-11-19T11:19:22.020Z,18.00
2022-11-19T11:21:57.245Z,18.50
2022-11-19T11:24:38.233Z,18.25
2022-11-19T11:27:21.736Z,17.00
2022-11-19T11:29:51.625Z,16.25
2022-11-19T11:32:32.856Z,15.50
2022-11-19T11:35:07.536Z,17.00
2022-11-19T11:37:40.721Z,19.00
2022-11-19T11:40:20.284Z,19.00
2022-11-19T11:42:49.950Z,16.25
2022-11-19T11:45:24.572Z,17.00
2022-11-19T11:47:54.133Z,18.00
2022-11-19T11:50:25.841Z,18.25
2022-11-19T11:52:56.251Z,16.75
2022-11-19T11:55:26.085Z,19.75
2022-11-19T11:57:59.506Z,18.75
2022-11-19T12:00:41.266Z,17.00
2022-11-19T12:03:15.268Z,18.25
2022-11-19T12:05:47.814Z,21.00
2022-11-19T12:08:36.756Z,22.75
2022-11-19T12:11:06.764Z,20.25
2022-11-19T12:13:55.124Z,21.00
2022-11-19T12:16:25.113Z,22.75
2022-11-19T12:19:00.720Z,25.00
2022-11-19T12:21:49.038Z,22.00
2022-11-19T12:24:25.653Z,22.00
2022-11-19T12:27:06.153Z,24.75
2022-11-19T12:29:44.533Z,26.00
2022-11-19T12:32:52.222Z,26.25
2022-11-19T12:35:34.497Z,22.75
2022-11-19T12:38:10.848Z,24.50
2022-11-19T12:40:56.250Z,23.50
2022-11-19T12:43:44.482Z,22.00
2022-11-19T12:46:55.113Z,23.00
2022-11-19T12:49:43.640Z,21.75
2022-11-19T12:52:30.260Z,22.50
2022-11-19T12:55:00.614Z,21.50
2022-11-19T12:57:30.505Z,20.75
2022-11-19T13:00:13.940Z,19.75
2022-11-19T13:02:55.254Z,22.00
2022-11-19T13:05:31.221Z,19.75
2022-11-19T13:08:21.807Z,19.00
2022-11-19T13:10:58.027Z,19.75
2022-11-19T13:13:30.590Z,21.00
2022-11-19T13:16:01.161Z,17.00
2022-11-19T13:18:33.228Z,20.75
2022-11-19T13:21:06.144Z,18.75
2022-11-19T13:23:40.353Z,21.25
2022-11-19T13:26:33.911Z,18.25
2022-11-19T13:29:27.342Z,21.25
2022-11-19T13:31:58.158Z,20.00
2022-11-19T13:34:52.040Z,21.25
2022-11-19T13:37:29.704Z,19.25
2022-11-19T13:40:07.176Z,20.25
2022-11-19T13:43:25.109Z,21.00
2022-11-19T13:45:48.800Z,20.25
2022-11-19T13:48:31.784Z,19.25
2022-11-19T13:51:06.110Z,19.50
2022-11-19T13:53:39.957Z,18.75
2022-11-19T13:56:15.382Z,19.00
2022-11-19T13:58:51.140Z,19.50
2022-11-19T14:01:24.248Z,18.00
2022-11-19T14:03:58.129Z,18.50
2022-11-19T14:06:45.862Z,21.25
2022-11-19T14:09:17.925Z,19.50
2022-11-19T14:11:51.402Z,20.25
2022-11-19T14:14:47.714Z,18.50
2022-11-19T14:17:42.761Z,20.00
2022-11-19T14:20:48.566Z,17.25
2022-11-19T14:23:59.693Z,19.50
2022-11-19T14:26:59.215Z,20.50
2022-11-19T14:29:35.969Z,18.00
2022-11-19T14:32:09.215Z,19.25
2022-11-19T14:34:41.585Z,19.50
2022-11-19T14:37:21.281Z,21.00
2022-11-19T14:40:02.012Z,21.00
2022-11-19T14:42:31.694Z,20.25
2022-11-19T14:45:06.956Z,21.50
2022-11-19T14:47:37.467Z,21.00
2022-11-19T14:50:10.254Z,21.75
2022-11-19T14:52:51.811Z,21.25
2022-11-19T14:55:26.020Z,21.50
2022-11-19T14:58:02.176Z,22.00
2022-11-19T15:00:39.162Z,22.50
2022-11-19T15:03:16.259Z,20.75
2022-11-19T15:05:48.453Z,21.75
2022-11-19T15:08:21.380Z,20.50
2022-11-19T15:11:11.040Z,22.25
2022-11-19T15:13:44.152Z,23.25
2022-11-19T15:16:19.471Z,26.25
2022-11-19T15:18:53.311Z,23.50
2022-11-19T15:21:30.321Z,23.50
2022-11-19T15:24:14.649Z,22.50
2022-11-19T15:27:01.547Z,23.00
2022-11-19T15:29:47.426Z,23.25
2022-11-19T15:32:45.497Z,21.50
2022-11-19T15:35:33.566Z,23.75
2022-11-19T15:38:31.154Z,22.75
2022-11-19T15:41:03.528Z,22.75
2022-11-19T15:43:38.134Z,21.00
2022-11-19T15:46:30.171Z,24.00
2022-11-19T15:49:13.350Z,24.50
2022-11-19T15:52:06.662Z,21.75
2022-11-19T15:54:37.681Z,23.75
2022-11-19T15:57:28.428Z,22.50
2022-11-19T16:00:03.290Z,23.25
2022-11-19T16:02:37.022Z,22.50
2022-11-19T16:05:09.401Z,22.50
2022-11-19T16:07:39.515Z,23.00
2022-11-19T16:10:09.460Z,21.25
2022-11-19T16:12:57.236Z,22.75
2022-11-19T16:15:46.883Z,23.25
2022-11-19T16:18:17.737Z,23.50
2022-11-19T16:20:53.585Z,23.25
2022-11-19T16:23:24.659Z,22.25
2022-11-19T16:25:54.709Z,25.00
2022-11-19T16:28:29.784Z,22.50
2022-11-19T16:31:03.857Z,25.25
2022-11-19T16:33:34.252Z,23.50
2022-11-19T16:36:20.680Z,26.00
2022-11-19T16:38:54.046Z,24.50
2022-11-19T16:41:43.467Z,22.00
2022-11-19T16:44:20.764Z,23.00
2022-11-19T16:46:50.373Z,25.50
2022-11-19T16:49:25.909Z,25.00
2022-11-19T16:51:55.777Z,22.25
2022-11-19T16:54:43.170Z,24.00
2022-11-19T16:57:13.158Z,22.75
2022-11-19T16:59:44.062Z,23.75
2022-11-19T17:02:17.551Z,22.00
2022-11-19T17:04:49.213Z,23.00
2022-11-19T17:07:26.547Z,22.00
2022-11-19T17:10:11.238Z,23.50
2022-11-19T17:12:51.637Z,25.50
2022-11-19T17:15:39.780Z,23.75
2022-11-19T17:18:12.038Z,23.25
2022-11-19T17:20:41.348Z,25.25
2022-11-19T17:23:13.152Z,24.25
2022-11-19T17:25:53.083Z,23.25
2022-11-19T17:28:37.736Z,23.50
2022-11-19T17:31:08.879Z,23.75
2022-11-19T17:33:38.394Z,24.00
2022-11-19T17:36:14.493Z,23.25
2022-11-19T17:38:44.036Z,25.00
2022-11-19T17:41:17.612Z,23.00
2022-11-19T17:44:05.057Z,25.00
2022-11-19T17:46:34.328Z,24.75
2022-11-19T17:49:03.660Z,24.00
2022-11-19T17:51:34.393Z,22.00
2022-11-19T17:54:03.912Z,25.00
2022-11-19T17:56:33.188Z,22.75
2022-11-19T17:59:02.936Z,24.00
2022-11-19T18:01:32.513Z,24.75
2022-11-19T18:04:02.018Z,25.75
2022-11-19T18:06:31.272Z,25.25
2022-11-19T18:09:00.527Z,25.00
2022-11-19T18:11:29.808Z,25.00
2022-11-19T18:14:02.996Z,23.00
2022-11-19T18:16:38.839Z,24.50
2022-11-19T18:19:12.108Z,25.50
2022-11-19T18:21:43.026Z,25.00
2022-11-19T18:24:13.619Z,25.00
2022-11-19T18:26:43.013Z,23.00
2022-11-19T18:29:12.419Z,22.25
2022-11-19T18:31:45.854Z,23.50
2022-11-19T18:34:26.425Z,23.75
2022-11-19T18:36:56.296Z,25.00
2022-11-19T18:39:25.567Z,24.00
2022-11-19T18:41:54.994Z,24.25
2022-11-19T18:44:36.625Z,23.75
2022-11-19T18:47:08.982Z,25.50
2022-11-19T18:49:39.084Z,24.25
2022-11-19T18:52:16.662Z,24.25
2022-11-19T18:54:46.258Z,25.75
2022-11-19T18:57:15.721Z,23.75
2022-11-19T18:59:45.021Z,23.00
2022-11-19T19:02:14.408Z,23.00
2022-11-19T19:04:46.025Z,21.50
2022-11-19T19:07:18.310Z,23.75
2022-11-19T19:09:47.745Z,23.25
2022-11-19T19:12:19.998Z,23.00
2022-11-19T19:14:50.703Z,22.25
2022-11-19T19:17:20.491Z,25.25
2022-11-19T19:19:51.145Z,23.00
2022-11-19T19:22:21.015Z,24.75
2022-11-19T19:24:56.709Z,25.75
2022-11-19T19:27:29.559Z,24.75
2022-11-19T19:29:59.605Z,23.75
2022-11-19T19:32:29.450Z,23.25
2022-11-19T19:34:58.665Z,25.00
2022-11-19T19:37:27.994Z,24.00
2022-11-19T19:39:57.278Z,22.25
2022-11-19T19:42:26.531Z,24.00
2022-11-19T19:44:55.842Z,25.75
2022-11-19T19:47:25.055Z,24.50
2022-11-19T19:49:54.471Z,21.75
2022-11-19T19:52:23.727Z,23.00
2022-11-19T19:54:53.108Z,23.25
2022-11-19T19:57:22.384Z,22.50
2022-11-19T19:59:51.575Z,23.50
2022-11-19T20:02:20.875Z,22.00
2022-11-19T20:04:50.400Z,22.00
2022-11-19T20:07:19.718Z,25.00
2022-11-19T20:09:49.258Z,22.50
2022-11-19T20:12:19.456Z,22.00
2022-11-19T20:14:49.904Z,23.00
2022-11-19T20:17:19.182Z,22.75
2022-11-19T20:19:48.419Z,21.00
2022-11-19T20:22:17.659Z,23.00
2022-11-19T20:24:46.993Z,24.25
2022-11-19T20:27:16.238Z,24.25
2022-11-19T20:29:45.605Z,23.25
2022-11-19T20:32:14.937Z,22.50
2022-11-19T20:34:44.158Z,23.00
2022-11-19T20:37:13.361Z,22.75
2022-11-19T20:39:42.613Z,23.00
2022-11-19T20:42:29.683Z,22.50
2022-11-19T20:44:59.504Z,22.50
2022-11-19T20:47:28.814Z,21.25
2022-11-19T20:49:58.129Z,25.75
2022-11-19T20:52:27.428Z,22.25
2022-11-19T20:54:56.762Z,22.00
2022-11-19T20:57:25.987Z,24.50
2022-11-19T20:59:55.242Z,25.00
2022-11-19T21:02:24.469Z,26.00
2022-11-19T21:04:53.708Z,22.25
2022-11-19T21:07:23.220Z,22.25
2022-11-19T21:09:52.517Z,23.00
2022-11-19T21:12:21.756Z,23.00
2022-11-19T21:14:50.990Z,23.00
2022-11-19T21:17:20.227Z,23.00
2022-11-19T21:19:49.958Z,21.00
2022-11-19T21:22:19.232Z,22.00
2022-11-19T21:24:48.494Z,21.00
2022-11-19T21:27:18.210Z,20.75
2022-11-19T21:29:47.480Z,21.00
2022-11-19T21:32:17.256Z,20.50
2022-11-19T21:34:46.458Z,20.00
2022-11-19T21:37:15.772Z,22.50
2022-11-19T21:39:45.054Z,20.25
2022-11-19T21:42:14.321Z,20.75
2022-11-19T21:44:44.160Z,21.00
2022-11-19T21:47:13.459Z,19.00
2022-11-19T21:49:42.770Z,20.50
2022-11-19T21:52:12.034Z,22.00
2022-11-19T21:54:41.375Z,19.00
2022-11-19T21:57:10.608Z,20.75
2022-11-19T21:59:39.822Z,19.00
2022-11-19T22:02:10.303Z,21.00
2022-11-19T22:04:39.538Z,20.75
2022-11-19T22:07:08.950Z,20.50
2022-11-19T22:09:38.277Z,22.00
2022-11-19T22:12:07.617Z,21.50
2022-11-19T22:14:36.820Z,21.75
2022-11-19T22:17:06.080Z,22.00
2022-11-19T22:19:35.347Z,21.75
2022-11-19T22:22:05.259Z,21.75
2022-11-19T22:24:34.469Z,21.50
2022-11-19T22:27:03.679Z,21.00
2022-11-19T22:29:32.974Z,21.25
2022-11-19T22:32:02.272Z,22.75
2022-11-19T22:34:31.570Z,20.75
2022-11-19T22:37:00.862Z,21.00
2022-11-19T22:39:30.113Z,19.50
2022-11-19T22:41:59.358Z,23.00
2022-11-19T22:44:28.622Z,21.00
2022-11-19T22:46:59.878Z,21.00
2022-11-19T22:49:29.545Z,20.50
2022-11-19T22:51:58.815Z,20.25
2022-11-19T22:54:28.034Z,20.75
2022-11-19T22:56:57.267Z,19.75
2022-11-19T22:59:26.498Z,19.75
2022-11-19T23:01:55.719Z,21.50
2022-11-19T23:04:26.018Z,21.75
2022-11-19T23:06:55.353Z,21.00
2022-11-19T23:09:24.643Z,19.25
2022-11-19T23:12:12.199Z,19.50
2022-11-19T23:14:41.466Z,20.50
2022-11-19T23:17:10.810Z,21.00
2022-11-19T23:19:40.274Z,20.75
2022-11-19T23:22:09.885Z,21.00
2022-11-19T23:24:39.117Z,19.50
2022-11-19T23:27:08.392Z,20.75
2022-11-19T23:29:37.642Z,19.50
2022-11-19T23:32:06.982Z,20.25
2022-11-19T23:34:36.315Z,19.00
2022-11-19T23:37:05.558Z,20.25
2022-11-19T23:39:34.841Z,21.25
2022-11-19T23:42:04.045Z,19.00
2022-11-19T23:44:33.587Z,20.00
2022-11-19T23:47:02.846Z,21.00
2022-11-19T23:49:32.169Z,20.25
2022-11-19T23:52:01.550Z,21.00
2022-11-19T23:54:30.826Z,19.75
2022-11-19T23:57:00.297Z,19.25
2022-11-19T23:59:29.815Z,19.75
